createdAt,value
2022-12-31T00:00:00.668Z,3.85
2022-12-31T00:02:28.455Z,3.97
2022-12-31T00:04:55.834Z,4.01
2022-12-31T00:07:23.162Z,3.93
2022-12-31T00:09:50.606Z,4.01
2022-12-31T00:12:17.908Z,4.07
2022-12-31T00:14:45.214Z,4.24
2022-12-31T00:17:12.555Z,4.25
2022-12-31T00:19:40.032Z,4.48
2022-12-31T00:22:07.286Z,4.52
2022-12-31T00:24:36.049Z,4.45
2022-12-31T00:27:03.443Z,4.66
2022-12-31T00:29:30.739Z,4.68
2022-12-31T00:31:58.011Z,4.75
2022-12-31T00:34:25.289Z,4.90
2022-12-31T00:36:52.752Z,5.10
2022-12-31T00:39:20.011Z,5.34
2022-12-31T00:41:47.313Z,5.48
2022-12-31T00:44:14.637Z,5.64
2022-12-31T00:49:07.963Z,5.69
2022-12-31T00:51:35.258Z,5.78
2022-12-31T00:54:02.528Z,5.88
2022-12-31T00:56:30.688Z,5.91
2022-12-31T00:58:59.170Z,5.95
2022-12-31T01:01:26.649Z,5.72
2022-12-31T01:03:58.957Z,5.74
2022-12-31T01:06:26.311Z,5.71
2022-12-31T01:08:55.295Z,5.69
2022-12-31T01:11:23.317Z,5.75
2022-12-31T01:13:57.820Z,5.65
2022-12-31T01:16:30.163Z,5.76
2022-12-31T01:19:03.151Z,5.59
2022-12-31T01:21:30.507Z,5.65
2022-12-31T01:23:58.765Z,5.52
2022-12-31T01:26:26.116Z,5.79
2022-12-31T01:28:53.469Z,5.47
2022-12-31T01:31:21.493Z,5.54
2022-12-31T01:33:48.923Z,5.52
2022-12-31T01:36:25.613Z,5.57
2022-12-31T01:38:57.321Z,5.75
2022-12-31T01:41:30.975Z,5.71
2022-12-31T01:44:00.269Z,5.58
2022-12-31T01:46:36.556Z,5.43
2022-12-31T01:49:24.443Z,5.62
2022-12-31T01:51:57.740Z,5.72
2022-12-31T01:54:25.618Z,5.68
2022-12-31T01:56:53.320Z,5.45
2022-12-31T01:59:20.665Z,5.48
2022-12-31T02:01:52.842Z,5.59
2022-12-31T02:04:21.090Z,5.66
2022-12-31T02:06:54.329Z,5.95
2022-12-31T02:09:21.595Z,6.05
2022-12-31T02:11:48.977Z,6.05
2022-12-31T02:14:17.433Z,5.84
2022-12-31T02:17:15.410Z,6.05
2022-12-31T02:19:45.502Z,5.94
2022-12-31T02:22:43.029Z,5.96
2022-12-31T02:25:31.862Z,5.78
2022-12-31T02:28:33.705Z,5.72
2022-12-31T02:31:09.117Z,5.55
2022-12-31T02:34:01.461Z,5.69
2022-12-31T02:36:31.951Z,5.71
2022-12-31T02:38:59.329Z,5.58
2022-12-31T02:41:45.097Z,5.61
2022-12-31T02:44:39.409Z,5.57
2022-12-31T02:47:09.742Z,5.68
2022-12-31T02:50:15.494Z,5.68
2022-12-31T02:53:04.357Z,5.58
2022-12-31T02:55:45.972Z,5.43
2022-12-31T02:58:14.544Z,5.34
2022-12-31T03:01:05.581Z,5.54
2022-12-31T03:03:32.990Z,5.38
2022-12-31T03:06:02.135Z,5.31
2022-12-31T03:08:29.394Z,5.24
2022-12-31T03:10:57.223Z,5.31
2022-12-31T03:13:24.915Z,5.59
2022-12-31T03:15:52.209Z,5.36
2022-12-31T03:18:39.681Z,4.97
2022-12-31T03:21:30.615Z,4.97
2022-12-31T03:24:16.578Z,4.78
2022-12-31T03:26:43.857Z,4.99
2022-12-31T03:29:11.185Z,5.15
2022-12-31T03:31:38.472Z,5.09
2022-12-31T03:34:05.823Z,5.16
2022-12-31T03:36:33.092Z,5.10
2022-12-31T03:39:00.383Z,4.97
2022-12-31T03:41:27.614Z,4.97
2022-12-31T03:43:54.881Z,4.90
2022-12-31T03:46:22.288Z,4.83
2022-12-31T03:48:49.597Z,4.58
2022-12-31T03:51:17.032Z,4.61
2022-12-31T03:53:44.364Z,4.75
2022-12-31T03:56:11.655Z,4.79
2022-12-31T03:58:38.952Z,4.93
2022-12-31T04:01:06.433Z,5.03
2022-12-31T04:03:33.827Z,5.09
2022-12-31T04:06:01.091Z,5.17
2022-12-31T04:08:28.339Z,5.26
2022-12-31T04:10:55.704Z,5.37
2022-12-31T04:13:22.956Z,5.23
2022-12-31T04:15:51.944Z,4.95
2022-12-31T04:18:19.284Z,4.68
2022-12-31T04:20:46.577Z,5.00
2022-12-31T04:23:13.901Z,5.22
2022-12-31T04:25:41.151Z,5.09
2022-12-31T04:28:11.501Z,4.95
2022-12-31T04:30:38.843Z,4.68
2022-12-31T04:33:06.143Z,4.62
2022-12-31T04:35:33.445Z,4.73
2022-12-31T04:38:00.714Z,4.51
2022-12-31T04:40:28.010Z,4.45
2022-12-31T04:42:55.301Z,4.62
2022-12-31T04:45:22.581Z,4.85
2022-12-31T04:47:49.850Z,4.76
2022-12-31T04:50:17.190Z,4.56
2022-12-31T04:52:44.934Z,4.59
2022-12-31T04:55:12.311Z,4.69
2022-12-31T04:57:40.943Z,4.59
2022-12-31T05:00:08.863Z,5.09
2022-12-31T05:02:36.231Z,4.85
2022-12-31T05:05:03.755Z,4.80
2022-12-31T05:07:31.049Z,4.93
2022-12-31T05:09:58.317Z,4.72
2022-12-31T05:12:25.608Z,4.73
2022-12-31T05:14:52.913Z,4.87
2022-12-31T05:17:21.087Z,4.83
2022-12-31T05:19:48.400Z,5.00
2022-12-31T05:22:31.094Z,4.87
2022-12-31T05:24:58.838Z,4.86
2022-12-31T05:27:26.656Z,4.78
2022-12-31T05:29:53.971Z,4.65
2022-12-31T05:32:21.234Z,4.71
2022-12-31T05:34:48.490Z,4.78
2022-12-31T05:37:15.791Z,4.90
2022-12-31T05:39:43.052Z,4.69
2022-12-31T05:42:10.283Z,4.69
2022-12-31T05:44:37.590Z,4.61
2022-12-31T05:47:04.953Z,4.40
2022-12-31T05:49:32.275Z,4.35
2022-12-31T05:51:59.583Z,4.30
2022-12-31T05:54:26.855Z,4.64
2022-12-31T05:56:54.146Z,4.42
2022-12-31T05:59:21.538Z,4.58
2022-12-31T06:01:48.819Z,4.72
2022-12-31T06:04:16.143Z,4.61
2022-12-31T06:06:43.436Z,4.73
2022-12-31T06:09:11.637Z,4.48
2022-12-31T06:11:38.893Z,4.62
2022-12-31T06:14:06.166Z,4.62
2022-12-31T06:16:33.425Z,4.44
2022-12-31T06:19:01.658Z,4.52
2022-12-31T06:21:29.469Z,4.65
2022-12-31T06:23:56.755Z,4.71
2022-12-31T06:26:25.784Z,4.73
2022-12-31T06:28:53.022Z,4.85
2022-12-31T06:31:20.452Z,5.07
2022-12-31T06:33:47.699Z,5.06
2022-12-31T06:36:15.516Z,4.92
2022-12-31T06:38:43.388Z,4.95
2022-12-31T06:41:12.253Z,5.16
2022-12-31T06:43:40.020Z,5.10
2022-12-31T06:46:08.594Z,5.31
2022-12-31T06:48:36.157Z,5.33
2022-12-31T06:51:13.436Z,5.24
2022-12-31T06:53:44.734Z,5.22
2022-12-31T06:56:19.873Z,5.28
2022-12-31T06:58:47.557Z,5.34
2022-12-31T07:01:14.783Z,5.48
2022-12-31T07:04:06.997Z,5.51
2022-12-31T07:07:13.150Z,5.71
2022-12-31T07:10:01.941Z,5.86
2022-12-31T07:12:57.981Z,6.01
2022-12-31T07:15:37.317Z,6.06
2022-12-31T07:18:27.748Z,6.17
2022-12-31T07:20:55.291Z,6.20
2022-12-31T07:23:22.962Z,6.07
2022-12-31T07:26:11.501Z,6.12
2022-12-31T07:28:53.539Z,6.19
2022-12-31T07:31:48.661Z,6.26
2022-12-31T07:34:37.079Z,6.53
2022-12-31T07:37:13.153Z,6.75
2022-12-31T07:40:14.174Z,6.80
2022-12-31T07:42:51.061Z,6.92
2022-12-31T07:45:26.314Z,7.01
2022-12-31T07:47:57.534Z,7.16
2022-12-31T07:50:29.968Z,7.40
2022-12-31T07:52:57.573Z,7.52
2022-12-31T07:55:24.883Z,7.50
2022-12-31T07:58:17.548Z,8.36
2022-12-31T08:00:44.877Z,8.36
2022-12-31T08:03:45.657Z,8.52
2022-12-31T08:06:12.944Z,8.20
2022-12-31T08:08:55.104Z,7.95
2022-12-31T08:11:41.122Z,7.85
2022-12-31T08:14:09.804Z,7.87
2022-12-31T08:16:37.403Z,7.95
2022-12-31T08:19:05.293Z,7.97
2022-12-31T08:21:43.324Z,8.08
2022-12-31T08:24:16.258Z,8.12
2022-12-31T08:27:01.711Z,8.08
2022-12-31T08:29:50.814Z,8.29
2022-12-31T08:32:45.553Z,8.43
2022-12-31T08:35:20.927Z,8.52
2022-12-31T08:37:54.771Z,8.73
2022-12-31T08:40:44.117Z,8.94
2022-12-31T08:43:30.369Z,9.01
2022-12-31T08:45:57.789Z,9.31
2022-12-31T08:48:30.547Z,9.48
2022-12-31T08:50:58.285Z,9.49
2022-12-31T08:53:25.834Z,9.61
2022-12-31T08:56:03.074Z,9.58
2022-12-31T08:58:52.137Z,9.46
2022-12-31T09:01:22.193Z,9.46
2022-12-31T09:04:05.122Z,9.53
2022-12-31T09:06:34.569Z,9.70
2022-12-31T09:09:40.352Z,9.85
2022-12-31T09:12:35.034Z,10.21
2022-12-31T09:15:32.323Z,10.47
2022-12-31T09:17:59.964Z,10.62
2022-12-31T09:20:42.982Z,10.51
2022-12-31T09:23:12.346Z,10.49
2022-12-31T09:25:55.954Z,10.34
2022-12-31T09:28:37.214Z,10.41
2022-12-31T09:31:06.899Z,10.30
2022-12-31T09:34:07.043Z,10.33
2022-12-31T09:36:41.765Z,10.42
2022-12-31T09:39:27.233Z,10.55
2022-12-31T09:42:30.981Z,10.54
2022-12-31T09:45:22.515Z,10.59
2022-12-31T09:48:47.246Z,10.55
2022-12-31T09:51:25.648Z,10.62
2022-12-31T09:53:59.101Z,10.64
2022-12-31T09:56:29.256Z,10.62
2022-12-31T09:59:05.589Z,10.69
2022-12-31T10:01:44.734Z,10.73
2022-12-31T10:04:12.112Z,10.85
2022-12-31T10:06:52.232Z,10.98
2022-12-31T10:09:51.936Z,11.03
2022-12-31T10:12:44.010Z,11.09
2022-12-31T10:15:17.222Z,11.17
2022-12-31T10:18:00.096Z,11.24
2022-12-31T10:20:33.521Z,11.24
2022-12-31T10:23:06.724Z,11.24
2022-12-31T10:25:50.813Z,11.40
2022-12-31T10:28:59.850Z,11.44
2022-12-31T10:31:51.384Z,11.44
2022-12-31T10:34:48.123Z,11.58
2022-12-31T10:37:17.544Z,11.75
2022-12-31T10:39:44.827Z,11.87
2022-12-31T10:42:34.006Z,11.81
2022-12-31T10:45:11.974Z,11.92
2022-12-31T10:48:16.896Z,12.11
2022-12-31T10:51:03.554Z,12.18
2022-12-31T10:54:01.012Z,12.29
2022-12-31T10:56:46.671Z,12.14
2022-12-31T10:59:32.430Z,12.14
2022-12-31T11:02:37.481Z,12.12
2022-12-31T11:05:38.984Z,12.04
2022-12-31T11:08:40.032Z,12.49
2022-12-31T11:11:45.277Z,12.70
2022-12-31T11:14:46.902Z,13.05
2022-12-31T11:17:59.121Z,13.32
2022-12-31T11:20:56.054Z,13.42
2022-12-31T11:23:56.844Z,13.55
2022-12-31T11:26:48.603Z,13.67
2022-12-31T11:30:03.861Z,14.03
2022-12-31T11:32:40.038Z,14.37
2022-12-31T11:35:16.663Z,14.46
2022-12-31T11:38:15.002Z,14.59
2022-12-31T11:41:02.936Z,14.85
2022-12-31T11:43:58.179Z,14.82
2022-12-31T11:46:41.015Z,14.69
2022-12-31T11:49:49.184Z,14.89
2022-12-31T11:52:35.100Z,14.99
2022-12-31T11:55:47.729Z,14.73
2022-12-31T11:58:20.576Z,14.49
2022-12-31T12:01:00.519Z,14.40
2022-12-31T12:03:27.919Z,14.32
2022-12-31T12:05:56.607Z,14.20
2022-12-31T12:08:25.027Z,14.37
2022-12-31T12:10:54.099Z,15.24
2022-12-31T12:13:26.749Z,15.72
2022-12-31T12:16:00.188Z,15.44
2022-12-31T12:18:36.947Z,15.27
2022-12-31T12:21:13.432Z,15.07
2022-12-31T12:23:40.886Z,14.96
2022-12-31T12:26:30.163Z,14.76
2022-12-31T12:29:00.011Z,14.62
2022-12-31T12:31:27.644Z,14.62
2022-12-31T12:33:54.974Z,14.80
2022-12-31T12:36:23.742Z,14.67
2022-12-31T12:39:01.912Z,14.62
2022-12-31T12:41:29.385Z,14.62
2022-12-31T12:44:07.538Z,14.55
2022-12-31T12:46:53.141Z,14.67
2022-12-31T12:49:28.672Z,14.61
2022-12-31T12:52:05.839Z,14.61
2022-12-31T12:54:39.167Z,14.52
2022-12-31T12:57:12.512Z,14.34
2022-12-31T12:59:49.778Z,14.17
2022-12-31T13:02:49.036Z,14.09
2022-12-31T13:05:24.395Z,14.20
2022-12-31T13:08:05.291Z,14.11
2022-12-31T13:10:47.544Z,14.17
2022-12-31T13:13:26.737Z,13.97
2022-12-31T13:16:26.748Z,13.94
2022-12-31T13:19:12.657Z,13.99
2022-12-31T13:22:01.360Z,13.94
2022-12-31T13:24:51.419Z,14.00
2022-12-31T13:27:27.756Z,14.01
2022-12-31T13:29:56.676Z,14.10
2022-12-31T13:32:41.095Z,14.10
2022-12-31T13:35:30.772Z,14.16
2022-12-31T13:38:05.588Z,14.16
2022-12-31T13:40:59.973Z,14.17
2022-12-31T13:43:38.160Z,13.99
2022-12-31T13:46:33.558Z,13.96
2022-12-31T13:49:03.252Z,13.96
2022-12-31T13:51:48.174Z,13.94
2022-12-31T13:54:49.483Z,13.93
2022-12-31T13:57:36.753Z,13.94
2022-12-31T14:00:06.358Z,13.84
2022-12-31T14:03:02.121Z,13.83
2022-12-31T14:05:35.346Z,13.61
2022-12-31T14:08:03.107Z,13.53
2022-12-31T14:10:37.269Z,13.38
2022-12-31T14:13:41.175Z,13.31
2022-12-31T14:16:20.166Z,13.26
2022-12-31T14:19:12.663Z,13.19
2022-12-31T14:21:58.357Z,13.28
2022-12-31T14:24:31.780Z,13.21
2022-12-31T14:27:00.786Z,13.25
2022-12-31T14:29:40.852Z,13.16
2022-12-31T14:32:26.299Z,13.19
2022-12-31T14:35:17.159Z,13.19
2022-12-31T14:38:17.295Z,13.22
2022-12-31T14:41:03.392Z,13.21
2022-12-31T14:43:50.517Z,13.18
2022-12-31T14:46:48.353Z,13.16
2022-12-31T14:49:28.091Z,13.08
2022-12-31T14:51:55.537Z,12.97
2022-12-31T14:54:34.512Z,12.94
2022-12-31T14:57:12.057Z,12.90
2022-12-31T14:59:40.847Z,12.84
2022-12-31T15:02:27.673Z,12.73
2022-12-31T15:05:13.067Z,12.68
2022-12-31T15:07:48.544Z,12.68
2022-12-31T15:10:21.619Z,12.63
2022-12-31T15:13:26.549Z,12.53
2022-12-31T15:16:08.963Z,12.56
2022-12-31T15:18:41.679Z,12.54
2022-12-31T15:21:53.092Z,12.43
2022-12-31T15:24:21.317Z,12.33
2022-12-31T15:26:53.354Z,12.30
2022-12-31T15:29:34.606Z,12.18
2022-12-31T15:32:04.036Z,12.22
2022-12-31T15:34:33.973Z,12.24
2022-12-31T15:37:03.294Z,12.28
2022-12-31T15:39:40.498Z,12.36
2022-12-31T15:42:37.876Z,12.32
2022-12-31T15:45:07.309Z,12.30
2022-12-31T15:47:41.806Z,12.30
2022-12-31T15:50:17.952Z,12.32
2022-12-31T15:52:48.156Z,12.33
2022-12-31T15:55:44.447Z,12.37
2022-12-31T15:58:15.065Z,12.33
2022-12-31T16:00:58.658Z,12.36
2022-12-31T16:03:28.015Z,12.36
2022-12-31T16:06:03.221Z,12.28
2022-12-31T16:08:32.373Z,12.29
2022-12-31T16:10:59.793Z,12.18
2022-12-31T16:13:27.888Z,12.24
2022-12-31T16:16:04.773Z,12.16
2022-12-31T16:18:42.735Z,12.16
2022-12-31T16:21:32.868Z,12.18
2022-12-31T16:24:05.327Z,12.15
2022-12-31T16:26:53.492Z,12.22
2022-12-31T16:29:22.634Z,12.29
2022-12-31T16:31:51.616Z,12.25
2022-12-31T16:34:22.265Z,12.22
2022-12-31T16:37:00.512Z,12.29
2022-12-31T16:39:37.585Z,12.32
2022-12-31T16:42:14.025Z,12.32
2022-12-31T16:44:41.524Z,12.25
2022-12-31T16:47:09.512Z,12.28
2022-12-31T16:49:38.528Z,12.18
2022-12-31T16:52:08.045Z,12.21
2022-12-31T16:54:39.580Z,12.16
2022-12-31T16:57:10.984Z,12.12
2022-12-31T16:59:43.532Z,12.08
2022-12-31T17:02:22.508Z,12.09
2022-12-31T17:04:55.574Z,12.05
2022-12-31T17:07:29.887Z,11.98
2022-12-31T17:10:07.264Z,11.92
2022-12-31T17:13:00.577Z,11.91
2022-12-31T17:15:28.227Z,11.81
2022-12-31T17:18:01.054Z,11.82
2022-12-31T17:20:29.944Z,11.87
2022-12-31T17:23:03.272Z,11.89
2022-12-31T17:25:31.596Z,11.85
2022-12-31T17:28:00.286Z,11.87
2022-12-31T17:30:31.585Z,11.82
2022-12-31T17:33:03.930Z,11.78
2022-12-31T17:35:42.327Z,11.78
2022-12-31T17:38:22.053Z,12.05
2022-12-31T17:40:54.028Z,12.18
2022-12-31T17:43:22.656Z,12.08
2022-12-31T17:45:53.094Z,11.75
2022-12-31T17:48:20.467Z,11.47
2022-12-31T17:50:48.236Z,11.41
2022-12-31T17:53:15.731Z,11.63
2022-12-31T17:55:48.035Z,11.37
2022-12-31T17:58:29.158Z,11.26
2022-12-31T18:00:57.175Z,11.16
2022-12-31T18:03:24.707Z,11.05
2022-12-31T18:05:51.973Z,11.02
2022-12-31T18:08:19.284Z,10.89
2022-12-31T18:10:46.560Z,10.96
2022-12-31T18:13:15.592Z,11.00
2022-12-31T18:15:42.961Z,10.95
2022-12-31T18:18:22.669Z,10.86
2022-12-31T18:20:57.296Z,10.85
2022-12-31T18:23:33.374Z,10.80
2022-12-31T18:26:00.759Z,10.82
2022-12-31T18:28:28.066Z,10.80
2022-12-31T18:30:55.404Z,10.83
2022-12-31T18:33:24.081Z,10.93
2022-12-31T18:36:09.167Z,10.86
2022-12-31T18:38:37.541Z,10.83
2022-12-31T18:41:05.174Z,10.98
2022-12-31T18:43:32.556Z,10.88
2022-12-31T18:45:59.952Z,10.80
2022-12-31T18:48:27.299Z,10.91
2022-12-31T18:50:54.594Z,10.93
2022-12-31T18:53:23.035Z,10.96
2022-12-31T18:55:54.851Z,10.86
2022-12-31T18:58:22.275Z,10.95
2022-12-31T19:00:49.745Z,10.91
2022-12-31T19:03:22.058Z,10.93
2022-12-31T19:05:50.986Z,10.78
2022-12-31T19:08:19.099Z,10.75
2022-12-31T19:10:47.344Z,10.85
2022-12-31T19:13:15.219Z,10.85
2022-12-31T19:15:49.792Z,10.83
2022-12-31T19:18:17.061Z,10.86
2022-12-31T19:20:44.569Z,10.86
2022-12-31T19:23:17.022Z,10.86
2022-12-31T19:25:44.474Z,10.88
2022-12-31T19:28:32.025Z,10.88
2022-12-31T19:30:59.343Z,10.83
2022-12-31T19:33:26.761Z,10.86
2022-12-31T19:35:54.095Z,10.91
2022-12-31T19:38:23.296Z,10.85
2022-12-31T19:40:50.962Z,10.86
2022-12-31T19:43:19.757Z,10.78
2022-12-31T19:45:47.281Z,10.73
2022-12-31T19:48:16.667Z,10.65
2022-12-31T19:50:51.274Z,10.57
2022-12-31T19:53:20.815Z,10.62
2022-12-31T19:55:48.544Z,10.57
2022-12-31T19:58:25.627Z,10.58
2022-12-31T20:00:58.451Z,10.55
2022-12-31T20:03:29.800Z,10.47
2022-12-31T20:06:01.950Z,10.41
2022-12-31T20:08:29.236Z,10.40
2022-12-31T20:10:58.968Z,10.37
2022-12-31T20:13:27.103Z,10.37
2022-12-31T20:15:54.464Z,10.36
2022-12-31T20:18:23.318Z,10.34
2022-12-31T20:20:55.782Z,10.28
2022-12-31T20:23:23.453Z,10.30
2022-12-31T20:25:58.535Z,10.24
2022-12-31T20:28:25.919Z,10.28
2022-12-31T20:30:53.337Z,10.21
2022-12-31T20:33:20.751Z,10.16
2022-12-31T20:35:48.221Z,10.13
2022-12-31T20:38:15.603Z,10.00
2022-12-31T20:40:46.683Z,10.11
2022-12-31T20:43:14.474Z,9.99
2022-12-31T20:45:41.861Z,9.93
2022-12-31T20:48:09.285Z,9.82
2022-12-31T20:50:36.614Z,9.70
2022-12-31T20:53:04.024Z,9.65
2022-12-31T20:55:32.364Z,9.58
2022-12-31T20:58:00.644Z,9.56
2022-12-31T21:00:27.915Z,9.53
2022-12-31T21:03:04.869Z,9.56
2022-12-31T21:05:38.246Z,9.48
2022-12-31T21:08:05.755Z,9.38
2022-12-31T21:10:34.514Z,9.49
2022-12-31T21:13:01.829Z,9.43
2022-12-31T21:15:29.184Z,9.38
2022-12-31T21:17:56.525Z,9.31
2022-12-31T21:20:23.896Z,9.25
2022-12-31T21:22:51.128Z,9.18
2022-12-31T21:25:18.431Z,9.14
2022-12-31T21:27:45.687Z,9.27
2022-12-31T21:30:18.791Z,9.25
2022-12-31T21:32:46.600Z,9.34
2022-12-31T21:38:05.118Z,9.22
2022-12-31T21:40:32.470Z,9.24
2022-12-31T21:42:59.828Z,9.15
2022-12-31T21:45:27.147Z,9.03
2022-12-31T21:48:13.057Z,9.05
2022-12-31T21:50:40.378Z,9.12
2022-12-31T21:53:07.650Z,9.20
2022-12-31T21:55:56.665Z,9.28
2022-12-31T21:58:26.831Z,9.08
2022-12-31T22:01:14.737Z,9.07
2022-12-31T22:03:42.185Z,9.07
2022-12-31T22:06:16.306Z,9.01
2022-12-31T22:08:44.564Z,9.10
2022-12-31T22:11:12.218Z,9.07
2022-12-31T22:13:39.635Z,8.93
2022-12-31T22:16:07.416Z,9.01
2022-12-31T22:18:38.838Z,8.94
2022-12-31T22:21:19.006Z,8.81
2022-12-31T22:23:56.564Z,8.62
2022-12-31T22:26:25.747Z,8.62
2022-12-31T22:28:53.272Z,8.74
2022-12-31T22:31:23.237Z,8.74
2022-12-31T22:33:50.541Z,8.69
2022-12-31T22:36:19.444Z,8.70
2022-12-31T22:38:46.923Z,8.64
2022-12-31T22:41:15.132Z,8.46
2022-12-31T22:43:44.147Z,8.38
2022-12-31T22:46:13.478Z,8.32
2022-12-31T22:48:41.661Z,8.39
2022-12-31T22:51:09.561Z,8.35
2022-12-31T22:53:38.643Z,8.28
2022-12-31T22:56:06.634Z,8.32
2022-12-31T22:58:33.946Z,8.31
2022-12-31T23:01:04.797Z,8.46
2022-12-31T23:03:32.225Z,8.38
2022-12-31T23:05:59.570Z,8.33
2022-12-31T23:08:26.891Z,8.09
2022-12-31T23:11:00.147Z,8.20
2022-12-31T23:13:50.483Z,8.22
2022-12-31T23:16:37.781Z,8.15
2022-12-31T23:19:24.209Z,8.04
2022-12-31T23:22:10.599Z,7.99
2022-12-31T23:24:38.003Z,7.94
2022-12-31T23:27:05.624Z,7.85
2022-12-31T23:29:32.968Z,7.87
2022-12-31T23:32:00.441Z,7.97
2022-12-31T23:34:27.809Z,8.02
2022-12-31T23:36:55.167Z,8.01
2022-12-31T23:39:22.493Z,7.99
2022-12-31T23:41:49.776Z,8.08
2022-12-31T23:44:17.085Z,8.04
2022-12-31T23:46:44.900Z,8.01
2022-12-31T23:49:12.401Z,7.88
2022-12-31T23:51:40.361Z,7.87
2022-12-31T23:54:07.871Z,7.70
2022-12-31T23:56:35.121Z,7.57
2022-12-31T23:59:02.560Z,7.60
